Time;durP1;ratioP1;P1;durP2;ratioP2;P2;SDS_P1;SDS_P2;PMS_P1;PMS_P2;Temp;Humidity;BMP_temperature;BMP_pressure;BME280_temperature;BME280_humidity;BME280_pressure;Samples;Min_cycle;Max_cycle;Signal;HPM_P1;HPM_P2
2021/05/07 00:48:28;;;;;;;3.60;1.60;;;;;;;8.47;75.85;99012.66;3324328;22;20415;-80
2021/05/07 00:50:26;;;;;;;2.95;1.42;;;;;;;8.38;75.28;99017.09;2232537;40;20468;-81
2021/05/07 00:52:00;;;;;;;3.45;1.45;;;;;;;8.32;75.62;99018.56;2218282;39;20086;-80
2021/05/07 00:53:38;;;;;;;2.90;1.27;;;;;;;8.34;75.45;99021.06;2228141;40;20364;-81
2021/05/07 00:56:48;;;;;;;3.15;1.40;;;;;;;8.36;75.27;99019.09;2175574;41;20024;-80
2021/05/07 00:58:23;;;;;;;3.15;1.50;;;;;;;8.31;75.28;99021.41;2157399;41;20055;-80
2021/05/07 00:59:55;;;;;;;2.95;1.55;;;;;;;8.30;75.36;99012.56;2191936;40;20068;-80
2021/05/07 01:04:08;;;;;;;3.38;1.80;;;;;;;8.23;75.25;99003.53;2192064;40;20042;-80
2021/05/07 01:05:46;;;;;;;3.40;1.50;;;;;;;8.27;75.47;99016.38;2205955;40;20157;-80
2021/05/07 01:07:24;;;;;;;4.47;2.05;;;;;;;8.26;75.44;99029.84;2190448;40;20385;-79
2021/05/07 01:09:15;;;;;;;3.65;2.10;;;;;;;8.21;75.57;99016.16;2218568;40;20045;-80
2021/05/07 01:10:48;;;;;;;4.53;1.85;;;;;;;8.20;75.64;99023.31;2231108;40;20043;-79
2021/05/07 01:12:21;;;;;;;3.60;2.00;;;;;;;8.21;75.73;99022.31;2209903;39;20033;-80
2021/05/07 01:13:56;;;;;;;3.33;1.65;;;;;;;8.20;75.80;99020.66;2229921;40;20052;-80
2021/05/07 01:15:28;;;;;;;3.50;2.00;;;;;;;8.23;75.87;99008.84;2226393;40;20032;-79
2021/05/07 01:17:00;;;;;;;4.35;2.28;;;;;;;8.21;75.89;99013.47;2230308;40;20074;-79
2021/05/07 01:18:32;;;;;;;3.58;1.98;;;;;;;8.18;76.00;99014.63;2216409;40;21731;-80
2021/05/07 01:20:07;;;;;;;4.00;2.03;;;;;;;8.15;76.09;99017.59;2224580;40;20325;-80
2021/05/07 01:21:42;;;;;;;4.03;2.00;;;;;;;8.18;76.08;99014.63;2213997;40;20045;-80
2021/05/07 01:23:14;;;;;;;4.55;2.50;;;;;;;8.18;76.31;99011.97;2205633;40;20500;-79
2021/05/07 01:24:46;;;;;;;3.53;1.98;;;;;;;8.21;76.46;99018.81;2213825;40;20563;-80
2021/05/07 01:26:18;;;;;;;4.13;1.88;;;;;;;8.26;76.67;99020.03;2219025;40;20041;-80
2021/05/07 01:27:53;;;;;;;3.38;1.52;;;;;;;8.31;76.54;99021.41;2220558;40;20045;-79
2021/05/07 01:29:27;;;;;;;3.97;2.13;;;;;;;8.31;76.28;99021.41;2218801;40;20042;-79
2021/05/07 01:30:59;;;;;;;4.40;2.53;;;;;;;8.28;76.33;99025.19;2194282;40;20042;-79
2021/05/07 01:32:31;;;;;;;4.93;2.80;;;;;;;8.20;76.50;99020.66;2208804;40;20043;-80
2021/05/07 01:34:03;;;;;;;3.90;2.22;;;;;;;8.16;76.48;99035.25;2219841;40;20340;-79
2021/05/07 01:35:56;;;;;;;5.57;2.78;;;;;;;8.18;76.44;99040.41;2225426;40;20041;-78
2021/05/07 01:37:27;;;;;;;4.85;2.97;;;;;;;8.15;76.56;99035.41;2223013;40;20065;-78
2021/05/07 01:38:59;;;;;;;4.35;2.65;;;;;;;8.14;76.75;99037.22;2224844;40;20312;-79
2021/05/07 01:40:32;;;;;;;4.38;2.50;;;;;;;8.16;76.77;99034.41;2216283;40;20049;-80
2021/05/07 01:42:04;;;;;;;7.60;2.88;;;;;;;8.10;76.84;99030.53;2218778;40;20111;-79
2021/05/07 01:43:36;;;;;;;4.47;2.30;;;;;;;8.12;77.02;99041.88;2222419;40;20059;-79
2021/05/07 01:45:08;;;;;;;3.90;2.22;;;;;;;8.07;77.15;99038.81;2224817;40;20424;-79
2021/05/07 01:46:40;;;;;;;4.53;2.72;;;;;;;8.00;77.29;99040.44;2216855;40;20414;-78
2021/05/07 01:48:12;;;;;;;4.65;2.88;;;;;;;7.93;77.57;99046.38;2218507;40;20111;-79
2021/05/07 01:49:43;;;;;;;5.55;3.20;;;;;;;7.91;77.61;99050.16;2222828;40;20374;-79
2021/05/07 01:51:16;;;;;;;4.68;2.95;;;;;;;7.93;77.95;99045.53;2222961;40;20033;-78
2021/05/07 01:52:47;;;;;;;5.28;2.83;;;;;;;7.92;77.95;99044.72;2224318;40;20037;-78
2021/05/07 01:54:18;;;;;;;5.45;3.30;;;;;;;7.96;77.93;99040.72;2225003;40;20029;-78
2021/05/07 01:55:50;;;;;;;5.80;3.42;;;;;;;7.94;77.96;99048.03;2221887;40;20362;-78
2021/05/07 01:57:26;;;;;;;5.07;3.30;;;;;;;7.96;78.07;99045.22;2224394;40;20032;-78
2021/05/07 01:58:58;;;;;;;5.55;3.47;;;;;;;7.91;78.27;99051.00;2230330;40;20382;-79
2021/05/07 02:00:30;;;;;;;6.28;3.40;;;;;;;7.86;78.48;99042.63;2228859;39;20048;-78
2021/05/07 02:02:01;;;;;;;5.15;3.13;;;;;;;7.80;78.70;99045.91;2230763;40;20036;-79
2021/05/07 02:03:33;;;;;;;5.55;3.25;;;;;;;7.75;79.02;99045.50;2229185;39;20048;-79
2021/05/07 02:05:05;;;;;;;5.05;3.40;;;;;;;7.71;78.99;99041.50;2230994;40;20044;-78
2021/05/07 02:06:38;;;;;;;5.10;3.20;;;;;;;7.72;79.25;99040.50;2229035;39;20048;-80
2021/05/07 02:08:11;;;;;;;5.90;3.53;;;;;;;7.72;79.22;99041.34;2231277;40;20036;-80
2021/05/07 02:09:43;;;;;;;5.55;3.50;;;;;;;7.71;79.47;99046.81;2229660;39;20048;-79
2021/05/07 02:11:14;;;;;;;7.72;3.60;;;;;;;7.68;79.37;99047.09;2231728;40;20048;-79
2021/05/07 02:12:50;;;;;;;5.18;3.25;;;;;;;7.68;79.39;99044.44;2229903;39;20057;-80
2021/05/07 02:14:21;;;;;;;5.30;3.40;;;;;;;7.69;79.56;99046.13;2225561;40;20037;-81
2021/05/07 02:16:13;;;;;;;5.68;3.35;;;;;;;7.71;79.65;99041.50;2223915;40;20401;-79
2021/05/07 02:17:45;;;;;;;5.32;2.95;;;;;;;7.70;79.68;99048.63;2225345;40;20048;-79
2021/05/07 02:19:17;;;;;;;5.43;2.90;;;;;;;7.71;79.44;99049.47;2221449;40;20048;-81
2021/05/07 02:22:51;;;;;;;5.85;3.50;;;;;;;7.65;79.50;99050.91;2217753;40;20049;-80
2021/05/07 02:24:36;;;;;;;6.13;3.00;;;;;;;7.63;79.45;99053.72;2223268;40;20142;-78
2021/05/07 02:26:08;;;;;;;5.18;2.97;;;;;;;7.67;79.56;99059.59;2224975;40;20038;-80
2021/05/07 02:27:41;;;;;;;6.78;3.95;;;;;;;7.68;79.59;99055.94;2223185;40;20136;-79
2021/05/07 02:29:12;;;;;;;5.75;3.90;;;;;;;7.65;79.45;99053.56;2224984;40;20337;-79
2021/05/07 02:30:43;;;;;;;5.13;3.15;;;;;;;7.65;79.67;99054.41;2223210;40;20564;-79
2021/05/07 02:32:18;;;;;;;5.35;3.55;;;;;;;7.74;79.56;99057.16;2225055;40;20033;-80
2021/05/07 02:33:51;;;;;;;5.20;3.45;;;;;;;7.80;79.56;99068.03;2214820;40;20049;-81
2021/05/07 02:35:29;;;;;;;5.72;3.50;;;;;;;7.84;79.35;99063.22;2222909;40;20029;-80
2021/05/07 02:37:01;;;;;;;8.85;3.38;;;;;;;7.83;79.39;99061.59;2223183;40;20060;-79
2021/05/07 02:38:37;;;;;;;5.40;3.22;;;;;;;7.80;79.38;99069.84;2224925;40;20034;-80
2021/05/07 02:40:10;;;;;;;6.18;3.50;;;;;;;7.75;79.39;99069.44;2223358;40;20049;-80
2021/05/07 02:41:49;;;;;;;5.63;3.65;;;;;;;7.74;79.36;99067.81;2225215;40;20037;-80
2021/05/07 02:43:21;;;;;;;4.85;3.30;;;;;;;7.71;79.58;99071.59;2223230;39;20045;-79
2021/05/07 02:44:52;;;;;;;6.55;4.38;;;;;;;7.71;79.42;99062.78;2224791;40;20045;-80
2021/05/07 02:46:33;;;;;;;6.07;3.20;;;;;;;7.70;79.76;99077.06;2222744;39;20084;-79
2021/05/07 02:48:06;;;;;;;4.72;3.10;;;;;;;7.74;79.80;99068.63;2225259;40;20044;-80
2021/05/07 02:49:38;;;;;;;5.20;3.47;;;;;;;7.70;79.66;99066.41;2223299;40;20037;-79
2021/05/07 02:51:09;;;;;;;6.68;4.25;;;;;;;7.73;79.63;99060.81;2224983;40;20040;-79
2021/05/07 02:53:03;;;;;;;6.50;4.18;;;;;;;7.78;79.53;99061.19;2223296;39;20061;-79
2021/05/07 02:54:37;;;;;;;6.05;4.25;;;;;;;7.75;79.57;99067.66;2222759;39;20045;-79
2021/05/07 02:56:10;;;;;;;4.75;2.92;;;;;;;7.76;79.54;99069.31;2224811;40;20041;-79
2021/05/07 02:57:44;;;;;;;6.22;4.07;;;;;;;7.75;79.40;99072.13;2222237;40;20045;-80
2021/05/07 02:59:16;;;;;;;7.20;4.22;;;;;;;7.68;79.37;99069.25;2225048;40;20026;-80
2021/05/07 03:00:50;;;;;;;6.10;3.92;;;;;;;7.64;79.40;99067.84;2219515;40;20050;-80
2021/05/07 03:02:29;;;;;;;5.63;3.85;;;;;;;7.68;79.39;99073.72;2219059;40;20044;-80
2021/05/07 03:04:02;;;;;;;7.90;4.10;;;;;;;7.68;79.45;99068.38;2216653;40;20045;-79
2021/05/07 03:05:34;;;;;;;5.45;3.63;;;;;;;7.62;79.36;99068.03;2218881;40;20402;-80
2021/05/07 03:07:06;;;;;;;5.88;3.97;;;;;;;7.63;79.48;99077.66;2216840;40;20060;-79
2021/05/07 03:08:37;;;;;;;6.78;4.20;;;;;;;7.61;79.37;99071.66;2218377;40;20042;-79
2021/05/07 03:10:10;;;;;;;6.45;4.45;;;;;;;7.58;79.54;99071.94;2221066;40;20111;-80
2021/05/07 03:11:42;;;;;;;6.43;4.35;;;;;;;7.61;79.65;99084.97;2225139;40;20104;-79
2021/05/07 03:13:13;;;;;;;5.97;4.45;;;;;;;7.61;79.59;99076.13;2222829;40;20080;-79
2021/05/07 03:14:45;;;;;;;6.38;4.38;;;;;;;7.58;79.92;99074.59;2225103;40;20055;-79
2021/05/07 03:16:16;;;;;;;7.53;4.82;;;;;;;7.56;79.97;99075.75;2223245;40;20045;-79
2021/05/07 03:17:53;;;;;;;5.18;3.70;;;;;;;7.58;80.10;99084.44;2224958;40;20051;-80
2021/05/07 03:19:25;;;;;;;7.00;4.22;;;;;;;7.58;79.88;99085.25;2217545;40;20072;-80
2021/05/07 03:20:57;;;;;;;6.65;4.53;;;;;;;7.60;79.88;99088.59;2218583;40;20282;-79
2021/05/07 03:22:29;;;;;;;5.55;3.83;;;;;;;7.63;79.92;99098.97;2222295;39;20053;-80
2021/05/07 03:24:04;;;;;;;6.50;4.70;;;;;;;7.65;79.90;99090.81;2224903;40;20037;-80
2021/05/07 03:25:37;;;;;;;6.93;4.55;;;;;;;7.64;79.70;99099.78;2222859;40;20056;-79
2021/05/07 03:27:09;;;;;;;7.25;5.15;;;;;;;7.68;79.86;99095.84;2225013;40;20041;-79
2021/05/07 03:28:42;;;;;;;7.05;4.53;;;;;;;7.67;79.80;99109.28;2222477;40;20045;-79
2021/05/07 03:30:14;;;;;;;6.10;4.13;;;;;;;7.67;79.89;99106.63;2223009;40;20047;-80
2021/05/07 03:31:46;;;;;;;7.25;4.88;;;;;;;7.61;79.77;99100.06;2218767;40;20396;-80
2021/05/07 03:33:27;;;;;;;6.55;4.88;;;;;;;7.54;80.00;99107.81;2215987;40;20049;-79
2021/05/07 03:35:01;;;;;;;;;;;;;;;7.52;80.11;99116.91;2225197;40;20033;-80
2021/05/07 03:36:35;;;;;;;5.95;4.47;;;;;;;7.51;80.24;99116.09;2221787;40;19933;-79
2021/05/07 03:38:09;;;;;;;7.30;4.80;;;;;;;7.56;80.22;99120.97;2224063;40;20036;-80
2021/05/07 03:39:42;;;;;;;6.60;4.65;;;;;;;7.54;80.10;99118.47;2218989;40;20053;-80
2021/05/07 03:41:16;;;;;;;8.82;5.90;;;;;;;7.51;80.35;99120.59;2218650;40;20046;-79
2021/05/07 03:43:19;;;;;;;8.18;5.38;;;;;;;7.45;80.46;99116.69;2214221;40;20421;-80
2021/05/07 03:49:02;;;;;;;;;;;;;;;7.45;80.61;99127.34;2218092;40;20495;-80
2021/05/07 03:50:43;;;;;;;7.13;5.25;;;;;;;7.46;80.64;99129.00;2211793;40;19958;-80
2021/05/07 03:52:18;;;;;;;7.68;5.18;;;;;;;7.44;80.64;99130.97;2218520;40;20328;-79
2021/05/07 03:53:52;;;;;;;7.63;5.03;;;;;;;7.44;80.64;99130.97;2224028;40;20044;-79
2021/05/07 03:55:24;;;;;;;7.15;5.10;;;;;;;7.45;80.74;99140.63;2218843;40;20059;-79
2021/05/07 03:57:05;;;;;;;7.40;5.32;;;;;;;7.46;80.66;99139.66;2224058;40;20033;-79
2021/05/07 03:58:38;;;;;;;6.65;4.97;;;;;;;7.48;80.74;99137.66;2221810;40;20089;-79
2021/05/07 04:00:14;;;;;;;6.80;4.97;;;;;;;7.47;80.81;99138.63;2223934;40;20048;-79
2021/05/07 04:01:46;;;;;;;7.68;5.28;;;;;;;7.43;80.77;99137.28;2222311;40;20422;-79
2021/05/07 04:03:18;;;;;;;8.35;5.30;;;;;;;7.48;80.81;99137.66;2222491;40;20033;-79
2021/05/07 04:04:49;;;;;;;7.53;5.40;;;;;;;7.50;80.82;99151.66;2223804;40;20029;-79
2021/05/07 04:06:26;;;;;;;7.13;5.47;;;;;;;7.47;80.59;99154.59;2221564;40;20041;-79
2021/05/07 04:08:05;;;;;;;7.90;5.20;;;;;;;7.44;80.50;99152.25;2217463;40;20037;-78
2021/05/07 04:09:50;;;;;;;6.80;5.10;;;;;;;7.42;80.56;99151.53;2216995;40;20052;-79
2021/05/07 04:11:30;;;;;;;9.10;5.60;;;;;;;7.40;80.69;99157.03;2216965;40;20050;-78
2021/05/07 04:14:54;;;;;;;8.82;5.78;;;;;;;7.40;80.52;99162.34;2223554;40;20041;-78
2021/05/07 04:16:28;;;;;;;7.30;5.13;;;;;;;7.39;80.40;99160.66;2222066;39;20053;-78
2021/05/07 04:17:59;;;;;;;6.70;4.78;;;;;;;7.38;80.36;99166.97;2222341;40;20033;-78
2021/05/07 04:19:53;;;;;;;7.57;4.88;;;;;;;7.40;80.17;99175.63;2223190;40;20049;-78
2021/05/07 04:21:56;;;;;;;7.53;5.32;;;;;;;7.36;80.03;99171.56;2223833;40;20037;-79
2021/05/07 04:23:43;;;;;;;9.15;4.85;;;;;;;7.36;79.99;99170.75;2226712;40;20044;-79
2021/05/07 04:25:25;;;;;;;7.47;5.00;;;;;;;7.35;79.80;99172.56;2223575;40;20110;-79
2021/05/07 04:26:58;;;;;;;7.45;5.28;;;;;;;7.36;79.81;99181.38;2226883;40;20286;-78
2021/05/07 04:28:40;;;;;;;6.32;4.40;;;;;;;7.34;79.79;99184.16;2207359;40;20061;-79
2021/05/07 04:30:16;;;;;;;6.93;4.53;;;;;;;7.30;79.68;99183.63;2218775;40;20064;-78
2021/05/07 04:31:52;;;;;;;6.72;4.65;;;;;;;7.30;79.67;99188.94;2223963;40;20037;-79
2021/05/07 04:33:41;;;;;;;6.30;4.72;;;;;;;7.29;79.62;99195.25;2221828;40;20062;-79
2021/05/07 04:35:15;;;;;;;7.45;4.90;;;;;;;7.32;79.67;99191.47;2216875;40;20047;-77
2021/05/07 04:43:15;;;;;;;6.88;4.40;;;;;;;7.31;79.63;99203.91;2219244;40;20045;-78
2021/05/07 04:47:37;;;;;;;9.40;5.47;;;;;;;7.28;79.82;99222.81;2223205;40;20055;-79
2021/05/07 04:53:27;;;;;;;7.95;5.55;;;;;;;7.34;80.15;99235.56;2221045;40;20045;-78
2021/05/07 04:58:07;;;;;;;6.30;4.47;;;;;;;7.37;80.22;99230.94;2211993;40;20541;-78
2021/05/07 05:35:01;;;;;;;9.85;6.15;;;;;;;7.52;79.51;99266.72;2215566;40;20321;-78
2021/05/07 05:37:05;;;;;;;8.90;5.97;;;;;;;7.59;79.06;99277.63;2197749;40;20076;-79
2021/05/07 05:38:50;;;;;;;8.65;5.80;;;;;;;7.51;79.03;99285.47;2212512;40;20048;-78
2021/05/07 05:44:40;;;;;;;9.38;6.18;;;;;;;7.53;79.00;99279.03;2196199;40;20503;-78
2021/05/07 05:46:22;;;;;;;8.27;5.88;;;;;;;7.56;79.06;99278.72;2211453;40;20052;-79
2021/05/07 05:48:23;;;;;;;8.00;6.00;;;;;;;7.60;79.06;99290.75;2224104;40;20081;-80
2021/05/07 05:49:55;;;;;;;8.20;5.57;;;;;;;7.57;79.04;99291.03;2208799;40;20412;-79
2021/05/07 05:51:44;;;;;;;8.00;5.38;;;;;;;7.64;78.99;99293.97;2228344;39;20094;-79
2021/05/07 05:55:50;;;;;;;9.10;6.63;;;;;;;7.71;78.88;99304.88;2208426;40;20033;-79
2021/05/07 05:57:22;;;;;;;8.55;6.47;;;;;;;7.73;78.70;99295.75;2225191;40;20337;-79
2021/05/07 05:59:00;;;;;;;10.10;5.25;;;;;;;7.73;78.43;99300.25;2221242;40;20022;-79
2021/05/07 06:00:42;;;;;;;9.10;6.10;;;;;;;7.67;78.17;99311.47;2223940;40;21467;-79
2021/05/07 06:02:18;;;;;;;8.32;5.60;;;;;;;7.58;78.47;99307.84;2227433;40;20029;-79
2021/05/07 06:03:52;;;;;;;7.72;5.13;;;;;;;7.63;78.47;99317.09;2224676;40;20041;-80
2021/05/07 06:05:29;;;;;;;8.57;5.72;;;;;;;7.63;78.41;99309.09;2227043;40;20037;-78
2021/05/07 06:07:02;;;;;;;9.60;5.55;;;;;;;7.61;78.48;99316.38;2220676;40;20119;-78
2021/05/07 06:08:33;;;;;;;7.57;5.53;;;;;;;7.64;78.22;99317.91;2218566;40;20026;-78
2021/05/07 06:10:06;;;;;;;8.88;5.68;;;;;;;7.64;78.18;99316.09;2207762;40;20107;-79
2021/05/07 06:11:37;;;;;;;8.88;5.60;;;;;;;7.67;78.07;99314.97;2218389;40;20038;-78
2021/05/07 06:13:10;;;;;;;8.13;5.63;;;;;;;7.68;77.65;99323.78;2217091;40;20053;-78
2021/05/07 06:14:41;;;;;;;8.20;5.50;;;;;;;7.67;77.31;99316.78;2218439;40;20033;-79
2021/05/07 06:16:13;;;;;;;8.48;5.15;;;;;;;7.70;77.10;99319.16;2216497;40;20052;-79
2021/05/07 06:17:45;;;;;;;8.05;5.30;;;;;;;7.75;76.73;99316.91;2217781;40;20499;-77
2021/05/07 06:19:16;;;;;;;8.35;4.68;;;;;;;7.83;76.52;99316.19;2220902;40;20438;-77
2021/05/07 06:20:48;;;;;;;8.27;5.75;;;;;;;7.81;75.76;99316.34;2224399;40;20029;-78
2021/05/07 06:22:19;;;;;;;9.23;5.00;;;;;;;7.81;75.34;99319.00;2222457;40;20402;-78
2021/05/07 06:23:51;;;;;;;6.70;5.03;;;;;;;7.79;75.39;99334.25;2224807;40;20037;-78
2021/05/07 06:25:26;;;;;;;9.15;6.15;;;;;;;7.88;75.32;99327.25;2216544;40;20056;-78
2021/05/07 06:26:58;;;;;;;6.85;4.70;;;;;;;7.92;75.34;99325.97;2218468;40;20036;-78
2021/05/07 06:28:29;;;;;;;8.70;5.32;;;;;;;7.96;75.13;99328.19;2221813;40;20049;-78
2021/05/07 06:30:01;;;;;;;10.63;6.18;;;;;;;8.04;75.09;99318.63;2224701;40;20044;-78
2021/05/07 06:31:32;;;;;;;8.63;5.35;;;;;;;8.14;75.06;99324.75;2210906;40;20038;-78
2021/05/07 06:33:04;;;;;;;7.60;4.78;;;;;;;8.25;74.76;99329.06;2223741;40;20032;-79
2021/05/07 06:34:38;;;;;;;8.75;5.38;;;;;;;8.33;74.30;99329.16;2222167;40;20048;-78
2021/05/07 06:36:11;;;;;;;8.25;5.10;;;;;;;8.35;74.13;99329.84;2224775;40;20033;-78
2021/05/07 06:37:43;;;;;;;6.72;4.80;;;;;;;8.33;73.61;99326.50;2216375;40;20049;-78
2021/05/07 06:39:15;;;;;;;6.78;5.25;;;;;;;8.36;73.45;99330.69;2216740;40;20077;-80
2021/05/07 06:40:48;;;;;;;8.32;5.82;;;;;;;8.31;72.65;99335.63;2218692;40;20037;-78
2021/05/07 06:42:19;;;;;;;7.28;5.35;;;;;;;8.22;72.45;99340.81;2216994;40;20042;-79
2021/05/07 06:43:51;;;;;;;7.72;5.60;;;;;;;8.20;72.37;99345.47;2218375;40;20048;-81
2021/05/07 06:45:23;;;;;;;7.20;5.43;;;;;;;8.17;72.15;99340.44;2216840;40;20409;-80
2021/05/07 06:46:55;;;;;;;8.45;5.57;;;;;;;8.16;72.10;99348.59;2219270;40;20032;-78
2021/05/07 06:48:26;;;;;;;14.65;6.47;;;;;;;8.16;72.27;99353.91;2216399;40;20091;-79
2021/05/07 06:49:58;;;;;;;11.80;5.95;;;;;;;8.14;72.06;99350.53;2218503;40;20138;-78
2021/05/07 06:51:30;;;;;;;9.68;5.65;;;;;;;8.12;71.90;99353.38;2216469;40;20052;-79
2021/05/07 06:53:05;;;;;;;9.27;6.25;;;;;;;8.14;72.14;99354.03;2218667;40;20044;-79
2021/05/07 06:54:38;;;;;;;8.00;5.40;;;;;;;8.11;72.01;99357.00;2216372;40;20089;-79
2021/05/07 06:56:11;;;;;;;8.45;4.95;;;;;;;8.10;71.72;99365.97;2218888;40;20055;-79
2021/05/07 06:57:43;;;;;;;7.65;4.72;;;;;;;8.16;71.70;99360.06;2216441;40;20068;-78
2021/05/07 06:59:16;;;;;;;7.45;5.53;;;;;;;8.15;71.21;99361.03;2218518;40;20427;-79
2021/05/07 07:00:47;;;;;;;9.98;6.47;;;;;;;8.05;71.16;99363.75;2215836;40;20397;-79
2021/05/07 07:02:20;;;;;;;8.55;6.00;;;;;;;8.03;70.95;99368.38;2218863;40;20041;-79
2021/05/07 07:03:58;;;;;;;9.55;6.43;;;;;;;8.02;71.13;99371.19;2217619;40;20333;-79
2021/05/07 07:05:29;;;;;;;9.23;7.10;;;;;;;8.00;71.09;99375.81;2218556;40;20049;-78
2021/05/07 07:07:01;;;;;;;10.50;6.45;;;;;;;7.95;70.91;99379.72;2215521;40;20061;-78
2021/05/07 07:08:34;;;;;;;8.90;6.03;;;;;;;7.93;70.99;99381.72;2219604;40;20095;-78
2021/05/07 07:10:20;;;;;;;9.15;6.00;;;;;;;7.95;70.64;99382.41;2175890;40;20074;-78
2021/05/07 07:11:52;;;;;;;10.60;6.57;;;;;;;7.97;70.77;99383.09;2218767;40;20050;-79
2021/05/07 07:13:31;;;;;;;9.98;6.30;;;;;;;8.08;70.90;99389.22;2221367;40;20102;-78
2021/05/07 07:15:07;;;;;;;8.20;6.28;;;;;;;8.10;70.12;99392.59;2227162;40;20041;-80
2021/05/07 07:16:46;;;;;;;10.90;6.97;;;;;;;8.05;69.55;99397.50;2218718;40;20045;-79
2021/05/07 07:18:19;;;;;;;8.95;7.15;;;;;;;8.00;69.60;99395.28;2218785;40;20382;-78
2021/05/07 07:19:57;;;;;;;9.88;6.35;;;;;;;7.95;69.44;99398.38;2219727;40;20037;-79
2021/05/07 07:21:29;;;;;;;9.32;6.30;;;;;;;8.00;69.45;99400.59;2209810;40;20036;-78
2021/05/07 07:23:17;;;;;;;10.90;6.60;;;;;;;8.07;69.09;99400.88;2225442;40;20072;-79
2021/05/07 07:24:51;;;;;;;8.60;6.30;;;;;;;8.13;68.19;99405.59;2214287;40;20055;-79
2021/05/07 07:26:45;;;;;;;10.38;6.70;;;;;;;8.26;67.81;99407.97;2219498;40;20041;-79
2021/05/07 07:28:43;;;;;;;9.27;6.25;;;;;;;8.46;67.58;99403.41;2176039;40;20354;-79
2021/05/07 07:35:21;;;;;;;13.23;6.80;;;;;;;9.29;65.34;99409.66;2203719;40;20036;-79
2021/05/07 07:39:17;;;;;;;10.43;7.15;;;;;;;9.03;64.58;99426.41;2223981;40;20428;-82
2021/05/07 07:43:43;;;;;;;10.13;7.07;;;;;;;9.39;62.66;99420.28;2212087;40;20405;-79
2021/05/07 07:47:42;;;;;;;10.00;6.75;;;;;;;9.64;62.17;99427.50;2212503;40;20053;-79
2021/05/07 07:50:14;;;;;;;8.75;6.53;;;;;;;9.70;61.64;99431.38;2213217;40;20048;-79
2021/05/07 07:52:40;;;;;;;9.23;6.05;;;;;;;9.70;59.43;99434.06;2220782;39;20048;-79
2021/05/07 08:37:02;;;;;;;11.27;7.35;;;;;;;11.32;51.78;99475.38;2225550;40;20045;-79
2021/05/07 08:38:46;;;;;;;9.30;5.68;;;;;;;11.00;51.85;99482.28;2207086;40;20041;-80
2021/05/07 09:11:23;;;;;;;7.28;4.72;;;;;;;11.30;44.42;99528.22;2211328;40;20123;-79
2021/05/07 09:13:44;;;;;;;8.23;5.30;;;;;;;11.20;43.98;99543.56;2197587;40;20053;-78
2021/05/07 09:18:31;;;;;;;7.43;4.50;;;;;;;11.84;43.95;99546.59;2211017;40;20046;-80
2021/05/07 09:26:59;;;;;;;7.35;4.68;;;;;;;13.39;40.44;99528.75;2205167;40;20478;-79
2021/05/07 09:28:55;;;;;;;8.55;5.20;;;;;;;13.04;39.68;99541.59;2172601;40;20055;-79
2021/05/07 09:34:11;;;;;;;12.40;5.43;;;;;;;12.69;40.35;99551.75;2172356;40;20151;-79
2021/05/07 09:35:47;;;;;;;6.20;4.75;;;;;;;12.17;40.72;99556.53;2197393;40;20050;-79
2021/05/07 09:47:23;;;;;;;8.90;5.38;;;;;;;12.17;42.67;99565.38;2213267;40;20078;-79
2021/05/07 09:48:55;;;;;;;9.35;5.82;;;;;;;12.48;42.05;99569.22;2198451;40;20070;-78
2021/05/07 09:51:13;;;;;;;9.20;5.00;;;;;;;12.85;41.48;99567.81;2220200;40;20050;-79
2021/05/07 09:55:30;;;;;;;8.90;5.22;;;;;;;12.87;39.82;99573.03;2193754;40;20038;-81
2021/05/07 09:59:15;;;;;;;7.68;4.72;;;;;;;12.28;40.71;99580.28;2170419;40;20035;-79
2021/05/07 10:00:55;;;;;;;6.38;4.50;;;;;;;11.85;41.92;99596.44;2196183;40;20096;-79
2021/05/07 10:02:28;;;;;;;7.88;4.57;;;;;;;11.65;42.87;99590.53;2213158;40;20031;-78
2021/05/07 10:04:01;;;;;;;7.85;4.93;;;;;;;11.61;43.14;99591.88;2204401;40;20053;-79
2021/05/07 10:12:57;;;;;;;6.07;3.95;;;;;;;11.94;41.22;99602.66;2200668;40;20314;-79
2021/05/07 10:14:33;;;;;;;5.20;3.58;;;;;;;11.91;39.90;99604.84;2212803;40;20054;-80
2021/05/07 10:16:35;;;;;;;8.65;3.28;;;;;;;11.78;38.96;99608.81;2207060;40;20050;-79
2021/05/07 10:20:34;;;;;;;5.80;3.30;;;;;;;11.54;39.42;99610.44;2191453;40;20030;-80
2021/05/07 10:22:14;;;;;;;6.05;3.35;;;;;;;11.50;39.84;99614.41;2208375;40;20046;-81
2021/05/07 10:23:52;;;;;;;6.38;3.50;;;;;;;12.04;39.00;99615.97;2212808;40;20283;-79
2021/05/07 10:25:40;;;;;;;5.25;3.05;;;;;;;11.97;38.46;99625.59;2210172;40;20054;-79
2021/05/07 10:46:06;;;;;;;6.50;3.40;;;;;;;11.97;38.74;99621.13;2215916;40;20045;-79
2021/05/07 10:47:40;;;;;;;10.60;3.63;;;;;;;11.83;38.08;99619.03;2218785;40;20030;-79
2021/05/07 10:51:22;;;;;;;7.90;3.40;;;;;;;11.55;38.79;99624.63;2224713;40;20393;-80
2021/05/07 10:52:58;;;;;;;5.50;3.13;;;;;;;11.57;38.65;99625.31;2209133;40;20046;-79
2021/05/07 10:54:41;;;;;;;5.72;3.05;;;;;;;11.68;38.76;99611.66;2220098;40;20033;-79
2021/05/07 10:56:19;;;;;;;5.25;2.88;;;;;;;11.91;38.30;99619.06;2224795;40;20041;-79
2021/05/07 10:58:01;;;;;;;5.85;2.90;;;;;;;12.09;38.16;99613.59;2205018;40;20417;-80
2021/05/07 10:59:40;;;;;;;4.70;2.80;;;;;;;12.17;38.34;99613.63;2218735;40;20034;-80
2021/05/07 11:07:52;;;;;;;7.00;3.47;;;;;;;12.73;36.89;99607.56;2214097;40;20041;-79
2021/05/07 11:10:17;;;;;;;7.22;3.00;;;;;;;12.78;37.05;99607.06;2213305;40;20033;-80
2021/05/07 11:13:50;;;;;;;6.85;2.97;;;;;;;12.95;37.12;99613.25;2210773;40;20037;-80
2021/05/07 11:15:57;;;;;;;5.38;3.20;;;;;;;12.89;36.12;99612.09;2205454;40;20040;-80
2021/05/07 11:17:31;;;;;;;8.55;3.20;;;;;;;12.98;35.75;99620.13;2207991;40;20041;-80
2021/05/07 11:19:05;;;;;;;4.57;2.40;;;;;;;12.93;35.87;99621.47;2215228;40;20057;-79
2021/05/07 11:20:41;;;;;;;4.18;2.30;;;;;;;12.89;36.01;99617.44;2218838;40;20487;-80
2021/05/07 11:22:17;;;;;;;4.88;2.80;;;;;;;12.91;35.55;99626.16;2217518;40;20457;-80
2021/05/07 11:23:52;;;;;;;4.68;2.90;;;;;;;12.88;34.65;99620.31;2218642;40;20045;-81
2021/05/07 11:25:33;;;;;;;5.20;2.75;;;;;;;12.86;34.78;99625.00;2216433;40;20049;-80
2021/05/07 11:27:29;;;;;;;4.70;2.78;;;;;;;12.86;34.92;99620.47;2215942;40;20056;-80
2021/05/07 11:29:00;;;;;;;14.20;3.80;;;;;;;12.90;34.76;99631.69;2219927;40;20100;-79
2021/05/07 11:30:34;;;;;;;6.30;3.35;;;;;;;12.76;35.02;99620.66;2217349;40;20034;-82
2021/05/07 11:32:43;;;;;;;5.25;2.95;;;;;;;12.72;35.58;99624.66;2219422;40;20048;-80
2021/05/07 11:34:35;;;;;;;5.70;2.80;;;;;;;12.68;35.01;99633.22;2212616;40;20057;-80
2021/05/07 11:36:10;;;;;;;5.57;3.17;;;;;;;12.56;34.58;99622.88;2219393;40;20026;-80
2021/05/07 11:38:07;;;;;;;5.53;2.78;;;;;;;12.60;34.59;99634.09;2216756;40;20099;-79
2021/05/07 11:39:44;;;;;;;7.68;3.20;;;;;;;12.59;34.45;99638.59;2200401;40;20091;-80
2021/05/07 11:41:17;;;;;;;5.50;2.95;;;;;;;12.60;34.63;99642.94;2218191;40;20034;-79
2021/05/07 11:42:52;;;;;;;6.43;3.10;;;;;;;12.63;34.40;99650.66;2213281;40;20049;-80
2021/05/07 11:44:39;;;;;;;8.43;3.00;;;;;;;12.65;34.12;99661.22;2216193;40;20034;-79
2021/05/07 11:46:27;;;;;;;4.90;3.25;;;;;;;12.63;33.89;99642.63;2214179;40;20038;-79
2021/05/07 11:48:28;;;;;;;6.90;2.88;;;;;;;12.67;34.09;99636.91;2216326;40;20037;-81
2021/05/07 11:50:01;;;;;;;6.45;2.83;;;;;;;12.70;34.18;99639.25;2221176;40;20064;-80
2021/05/07 11:51:50;;;;;;;6.03;2.70;;;;;;;12.76;33.91;99633.22;2218662;40;20119;-79
2021/05/07 11:53:31;;;;;;;6.40;3.10;;;;;;;12.81;34.22;99641.59;2216326;40;20042;-80
2021/05/07 11:55:47;;;;;;;5.00;2.80;;;;;;;13.00;34.10;99644.94;2218355;40;20360;-82
2021/05/07 11:57:36;;;;;;;7.68;2.83;;;;;;;13.11;34.08;99649.94;2220126;40;20406;-79
2021/05/07 11:59:09;;;;;;;5.60;2.80;;;;;;;13.30;33.94;99653.25;2220353;40;20391;-80
2021/05/07 12:00:44;;;;;;;5.18;2.50;;;;;;;13.34;33.41;99649.19;2215672;40;20044;-78
2021/05/07 12:02:24;;;;;;;5.43;3.15;;;;;;;13.22;33.29;99656.78;2219868;40;20042;-80
2021/05/07 12:04:04;;;;;;;5.25;2.60;;;;;;;13.11;33.52;99669.56;2206075;40;20178;-79
2021/05/07 12:05:38;;;;;;;5.97;2.70;;;;;;;12.92;34.11;99670.78;2213769;40;20038;-81
2021/05/07 12:07:21;;;;;;;5.97;2.80;;;;;;;12.77;35.24;99688.53;2201094;40;20072;-81
2021/05/07 12:08:54;;;;;;;4.75;2.88;;;;;;;12.66;35.63;99713.84;2219132;40;20030;-80
2021/05/07 12:10:27;;;;;;;4.95;2.70;;;;;;;12.32;37.36;99712.97;2212005;40;20050;-81
2021/05/07 12:11:59;;;;;;;5.60;3.15;;;;;;;12.04;38.40;99722.25;2213289;40;20045;-80
2021/05/07 12:13:31;;;;;;;8.35;3.00;;;;;;;11.85;39.07;99740.25;2210810;40;20356;-79
2021/05/07 12:15:11;;;;;;;7.53;2.97;;;;;;;11.64;40.03;99749.50;2212559;40;20034;-80